Aviation Digital Data Service (ADDS)

Output produced by TAFs form (2121 UTC 19 November 2017)
found at http://aviationweather.gov/adds/tafs/
 
KFMN 191721Z 1918/2018 07006KT P6SM SCT250 
     FM192000 26006KT P6SM SCT250 
     FM200200 VRB04KT P6SM FEW250 
     FM200700 08005KT P6SM FEW250